Airfield :







YOU CAN JOIN US ON...

 
LOGIN :

Register | Disclaimer

   EN    FR    IT 

 









Legend :    VFR   Marginal VFR   IFR   Intensive IFR   Very Intensive IFR
Visi :
Ceiling :
>= 8 km
>= 3000ft
5 to 8 km
1000 to 3000 ft
1500m to 5 km
500 to 1000 ft
800 to 1500m
200 to 500 ft
< 800m
< 200 ft
Symbols :   Thunderstorms  Fog  Heavy snow  Heavy precipitations  Wind > 20 kt






- Airport Elevation : 41 ft
- IATA code : GND


TGPY - Point Salines

CURRENT METAR :
  • 051700Z 09014KT 9999 SCT017 31/25 Q1013 ADJ SHRA-NE

EXPIRED METARs :
  • 051600Z 09015KT 9999 -SHRA SCT017 FEW///CB 30/25 Q1014 CB-W
  • 051500Z 10015KTG25 9999 FEW018 31/25 Q1015

TAF TGPY
Valid from the 05 at 12:00 until the 06 at 12:00 UTC


050958Z 0512/0612 09016KT 9999 SCT018 SCT038
BECMG 0523/0601 07010KT SCT018
TEMPO 0606/0610 BKN018
BECMG 0610/0612 09016KT



MET'MAP, your aeronautical weather chart ! - Copyright ORBIFLY December 2007 - Disclaimer

ORBIFLY MET'MAP TEAM :

Programming & Development : Alexandra Zaïnal
Concept & original design : Baudouin d'Aumeries
Assistance for programming : Marc-Olivier Méhu
Technical & hardware support : Manuel Goepfert

Contact : metmap@orbifly.com




SOURCES & CREDITS :

   NOAA